Time;durP1;ratioP1;P1;durP2;ratioP2;P2;SDS_P1;SDS_P2;PMS_P1;PMS_P2;Temp;Humidity;BMP_temperature;BMP_pressure;BME280_temperature;BME280_humidity;BME280_pressure;Samples;Min_cycle;Max_cycle;Signal;HPM_P1;HPM_P2
2021/11/01 00:01:35;;;;;;;;;29.25;27.00;;;;;10.44;77.36;101181.66;146608;689;46016;-81
2021/11/01 00:04:09;;;;;;;;;28.50;26.00;;;;;10.44;77.19;101184.25;146609;606;46014;-81
2021/11/01 00:06:43;;;;;;;;;37.00;28.25;;;;;10.42;77.21;101180.66;146608;620;46012;-80
2021/11/01 00:09:17;;;;;;;;;34.75;28.50;;;;;10.35;77.22;101188.06;146614;627;45020;-79
2021/11/01 00:11:52;;;;;;;;;31.75;26.50;;;;;10.29;77.08;101187.69;146609;564;46016;-78
2021/11/01 00:14:27;;;;;;;;;33.00;30.00;;;;;10.30;77.13;101188.59;146613;585;46014;-77
2021/11/01 00:17:01;;;;;;;;;30.00;26.25;;;;;10.27;77.14;101189.28;146611;600;46016;-80
2021/11/01 00:19:35;;;;;;;;;32.00;25.50;;;;;10.26;76.58;101184.00;146613;587;46020;-83
2021/11/01 00:22:09;;;;;;;;;33.50;28.25;;;;;10.25;76.75;101189.97;146608;720;45032;-82
2021/11/01 00:24:43;;;;;;;;;28.00;26.50;;;;;10.24;76.99;101188.19;146613;631;46012;-81
2021/11/01 00:27:17;;;;;;;;;27.25;24.75;;;;;10.23;76.88;101186.41;146612;691;45021;-82
2021/11/01 00:29:51;;;;;;;;;27.50;26.75;;;;;10.19;77.23;101185.34;146611;618;45020;-81
2021/11/01 00:32:25;;;;;;;;;29.50;24.75;;;;;10.14;76.94;101179.84;146613;587;46012;-81
2021/11/01 00:34:59;;;;;;;;;29.50;27.00;;;;;10.11;76.96;101176.19;146614;665;45021;-82
2021/11/01 00:37:33;;;;;;;;;27.25;24.50;;;;;10.06;76.83;101164.66;146611;623;46016;-80
2021/11/01 00:40:08;;;;;;;;;30.25;24.75;;;;;10.08;77.09;101165.66;146615;672;45020;-80
2021/11/01 00:42:42;;;;;;;;;22.50;20.50;;;;;10.08;76.93;101160.47;146612;591;46012;-83
2021/11/01 00:45:17;;;;;;;;;26.00;22.75;;;;;10.09;76.92;101150.22;146613;709;45020;-82
2021/11/01 00:47:51;;;;;;;;;29.50;25.75;;;;;10.08;77.32;101153.59;146610;583;45020;-82
2021/11/01 00:50:24;;;;;;;;;25.75;21.00;;;;;10.08;77.16;101147.50;146612;601;46020;-79
2021/11/01 00:52:59;;;;;;;;;22.25;20.25;;;;;10.07;77.26;101143.13;146614;705;46012;-82
2021/11/01 00:55:38;;;;;;;;;28.25;26.25;;;;;10.06;78.00;101142.25;146615;571;45021;-83
2021/11/01 00:58:12;;;;;;;;;25.50;21.00;;;;;10.06;77.36;101142.25;146610;644;46016;-83
2021/11/01 01:00:46;;;;;;;;;22.75;22.00;;;;;10.06;77.17;101143.91;146612;673;46020;-80
2021/11/01 01:03:21;;;;;;;;;25.00;23.50;;;;;10.09;77.28;101142.44;146610;566;46021;-81
2021/11/01 01:05:58;;;;;;;;;18.75;18.25;;;;;10.12;77.32;101141.69;146616;640;45020;-81
2021/11/01 01:08:32;;;;;;;;;31.75;25.00;;;;;10.11;77.24;101140.81;146610;561;45020;-82
2021/11/01 01:11:06;;;;;;;;;28.00;23.00;;;;;10.07;76.76;101143.13;146612;594;45021;-76
2021/11/01 01:13:41;;;;;;;;;29.25;25.25;;;;;10.03;76.96;101147.25;146611;594;46016;-76
2021/11/01 01:16:28;;;;;;;;;30.00;27.00;;;;;10.04;76.91;101141.25;146612;618;46012;-75
2021/11/01 01:19:02;;;;;;;;;31.00;28.00;;;;;10.06;76.69;101141.34;146607;620;45021;-77
2021/11/01 01:24:28;;;;;;;;;29.50;25.00;;;;;9.96;77.27;101132.13;146607;618;46017;-77
2021/11/01 01:27:02;;;;;;;;;29.00;24.50;;;;;9.90;77.15;101132.63;146615;591;46020;-77
2021/11/01 01:29:36;;;;;;;;;24.75;23.75;;;;;9.84;77.25;101132.25;146613;596;45909;-77
2021/11/01 01:32:10;;;;;;;;;30.50;25.50;;;;;9.79;77.30;101138.87;146616;598;45018;-86
2021/11/01 01:34:44;;;;;;;;;42.25;34.00;;;;;9.73;78.23;101130.75;146612;589;45021;-86
2021/11/01 01:37:18;;;;;;;;;48.50;39.75;;;;;9.67;78.51;101127.78;146616;569;45020;-83
2021/11/01 01:39:52;;;;;;;;;50.50;41.75;;;;;9.62;78.28;101122.28;146611;634;45020;-83
2021/11/01 01:42:26;;;;;;;;;24.50;22.25;;;;;9.63;78.13;101131.87;146612;640;46020;-80
2021/11/01 01:45:00;;;;;;;;;25.00;21.50;;;;;9.63;77.82;101126.69;146612;627;45020;-76
2021/11/01 01:47:34;;;;;;;;;29.25;25.00;;;;;9.63;77.85;101123.22;146614;602;45024;-77
2021/11/01 01:50:08;;;;;;;;;27.50;21.75;;;;;9.63;77.71;101121.53;146611;575;46012;-76
2021/11/01 01:52:58;;;;;;;;;30.75;26.50;;;;;9.62;78.23;101118.81;146615;577;45020;-78
2021/11/01 01:56:27;;;;;;;;;29.00;24.25;;;;;9.58;77.54;101120.34;146611;622;46013;-76
2021/11/01 01:59:09;;;;;;;;;22.00;22.00;;;;;9.60;77.71;101120.44;146615;595;45020;-76
2021/11/01 02:01:44;;;;;;;;;26.75;25.50;;;;;9.61;77.93;101117.03;146608;666;46020;-76
2021/11/01 02:11:22;;;;;;;;;24.75;21.00;;;;;9.52;77.72;101121.66;146610;594;47010;-73
2021/11/01 02:14:17;;;;;;;;;28.75;23.00;;;;;9.48;77.61;101116.28;146613;677;46012;-73
2021/11/01 02:16:58;;;;;;;;;30.25;25.00;;;;;9.45;78.60;101125.56;146613;753;45021;-78
2021/11/01 02:19:46;;;;;;;;;24.75;22.00;;;;;9.41;78.25;101119.31;146611;628;45016;-73
2021/11/01 02:22:47;;;;;;;;;25.25;23.50;;;;;9.40;78.24;101120.09;146609;580;46020;-72
2021/11/01 02:25:50;;;;;;;;;28.50;24.50;;;;;8.42;77.78;100948.44;146609;567;46016;-80
2021/11/01 02:28:40;;;;;;;;;27.75;25.00;;;;;9.46;78.38;101123.06;146612;620;46010;-75
2021/11/01 02:31:19;;;;;;;;;28.50;27.00;;;;;9.53;77.93;101126.03;146609;571;46012;-75
2021/11/01 02:33:58;;;;;;;;;26.25;22.25;;;;;9.56;77.93;101126.22;146616;569;46010;-74
2021/11/01 02:36:36;;;;;;;;;24.25;23.00;;;;;9.56;77.32;101121.91;146613;609;46016;-75
2021/11/01 02:39:13;;;;;;;;;30.25;25.00;;;;;9.56;77.59;101121.91;146614;645;45021;-75
2021/11/01 02:41:53;;;;;;;;;35.25;28.25;;;;;9.54;77.37;101115.78;146611;588;46012;-74
2021/11/01 02:44:31;;;;;;;;;32.25;26.50;;;;;9.50;77.18;101116.38;146613;607;45020;-74
2021/11/01 02:47:08;;;;;;;;;25.00;21.25;;;;;9.53;77.39;101115.66;146612;717;45020;-75
2021/11/01 02:49:48;;;;;;;;;30.75;26.50;;;;;9.50;77.70;101113.78;146616;574;46020;-76
2021/11/01 02:52:25;;;;;;;;;29.75;24.25;;;;;9.48;77.32;101108.53;146612;577;46012;-82
2021/11/01 02:55:13;;;;;;;;;27.50;25.25;;;;;9.48;77.23;101118.87;146612;572;46013;-81
2021/11/01 02:57:47;;;;;;;;;25.50;22.75;;;;;9.50;77.28;101106.00;146612;583;46909;-81
2021/11/01 03:00:26;;;;;;;;;28.75;23.25;;;;;9.54;77.13;101105.41;146618;605;45020;-79
2021/11/01 03:03:06;;;;;;;;;18.25;13.75;;;;;9.57;77.59;101109.91;146618;578;46021;-77
2021/11/01 03:05:48;;;;;;;;;23.25;22.25;;;;;9.53;76.44;101105.31;146610;622;45029;-77
2021/11/01 03:08:34;;;;;;;;;25.00;23.00;;;;;9.52;77.30;101100.94;146611;605;45040;-74
2021/11/01 03:11:10;;;;;;;;;30.00;25.25;;;;;9.48;77.06;101108.53;146612;563;46010;-74
2021/11/01 03:13:57;;;;;;;;;23.25;20.75;;;;;9.46;77.17;101104.03;146610;670;46014;-74
2021/11/01 03:16:37;;;;;;;;;22.50;21.75;;;;;9.42;77.04;101109.84;146615;613;45021;-79
2021/11/01 03:19:23;;;;;;;;;24.00;22.25;;;;;9.36;77.76;101106.88;146609;608;46016;-90
2021/11/01 03:22:00;;;;;;;;;27.50;20.50;;;;;9.30;77.54;101112.56;146613;591;45020;-83
2021/11/01 03:24:48;;;;;;;;;25.50;24.00;;;;;9.23;77.39;101102.63;146612;606;46012;-85
2021/11/01 03:27:31;;;;;;;;;38.25;31.50;;;;;9.21;77.70;101110.28;146612;577;46010;-81
2021/11/01 03:30:09;;;;;;;;;40.75;34.00;;;;;9.20;77.37;101110.19;146615;616;45016;-77
2021/11/01 03:32:52;;;;;;;;;32.50;30.75;;;;;9.16;77.68;101114.28;146618;593;45021;-80
2021/11/01 03:35:30;;;;;;;;;37.25;31.00;;;;;9.16;77.61;101113.41;146608;607;46012;-73
2021/11/01 03:38:13;;;;;;;;;31.75;26.00;;;;;9.10;78.01;101095.78;146615;594;45020;-75
2021/11/01 03:40:52;;;;;;;;;24.00;20.75;;;;;9.21;77.87;101111.97;146613;590;45045;-78
2021/11/01 03:43:30;;;;;;;;;29.00;25.00;;;;;9.22;77.79;101118.94;146615;572;45020;-76
2021/11/01 03:46:06;;;;;;;;;25.25;23.50;;;;;9.21;77.54;101107.69;146611;581;46017;-76
2021/11/01 03:48:46;;;;;;;;;22.75;21.25;;;;;9.20;78.05;101105.91;146611;606;45014;-78
2021/11/01 03:54:33;;;;;;;;;35.00;29.25;;;;;9.13;77.44;101113.22;146613;669;45021;-76
2021/11/01 03:57:14;;;;;;;;;30.25;28.25;;;;;9.07;78.61;101115.41;146613;636;46016;-76
2021/11/01 03:59:52;;;;;;;;;26.50;24.75;;;;;8.99;78.87;101101.97;146613;571;45020;-76
2021/11/01 04:02:31;;;;;;;;;26.25;24.50;;;;;8.93;79.52;101106.75;146611;587;46017;-76
2021/11/01 04:05:14;;;;;;;;;28.75;23.75;;;;;8.92;78.70;101097.22;146615;598;45020;-76
2021/11/01 04:07:51;;;;;;;;;49.25;38.25;;;;;8.94;78.11;101100.78;146611;576;46017;-76
2021/11/01 04:10:34;;;;;;;;;33.00;31.00;;;;;8.99;78.40;101099.38;146614;588;45020;-74
2021/11/01 04:13:16;;;;;;;;;29.75;26.00;;;;;9.02;77.90;101102.16;146611;652;46016;-78
2021/11/01 04:16:09;;;;;;;;;30.75;28.00;;;;;9.07;78.00;101100.78;146615;668;45029;-77
2021/11/01 04:19:01;;;;;;;;;33.50;29.25;;;;;9.11;77.94;101105.34;146613;587;45016;-76
2021/11/01 04:21:47;;;;;;;;;35.25;30.75;;;;;9.15;77.70;101104.72;146615;621;46020;-76
2021/11/01 04:24:37;;;;;;;;;31.00;26.25;;;;;9.19;77.53;101095.44;146611;644;46016;-76
2021/11/01 04:27:12;;;;;;;;;30.25;26.25;;;;;9.17;77.53;101100.53;146614;582;46010;-75
2021/11/01 04:29:47;;;;;;;;;29.25;23.75;;;;;9.14;77.27;101095.19;146604;687;47909;-75
2021/11/01 04:32:27;;;;;;;;;26.25;23.50;;;;;9.11;77.40;101092.41;146613;583;45020;-84
2021/11/01 04:35:09;;;;;;;;;24.00;23.00;;;;;9.08;77.17;101106.84;146612;566;46012;-74
2021/11/01 04:37:55;;;;;;;;;25.25;21.25;;;;;9.02;77.75;101108.22;146614;568;45919;-75
2021/11/01 04:40:48;;;;;;;;;26.50;22.50;;;;;8.96;77.67;101099.19;146607;576;46016;-74
2021/11/01 04:55:14;;;;;;;;;33.00;31.25;;;;;8.89;78.45;101089.25;146611;596;46010;-83
2021/11/01 04:57:59;;;;;;;;;28.75;23.75;;;;;8.92;78.35;101097.22;146614;596;45016;-84
2021/11/01 05:00:53;;;;;;;;;26.00;24.00;;;;;8.97;78.03;101090.63;146613;612;46010;-81
2021/11/01 05:03:38;;;;;;;;;33.75;31.25;;;;;8.98;77.73;101084.66;146612;566;45016;-82
2021/11/01 05:06:21;;;;;;;;;34.50;27.00;;;;;9.02;78.06;101084.06;146616;589;45014;-83
2021/11/01 05:09:07;;;;;;;;;32.50;26.75;;;;;9.00;77.99;101094.31;146610;699;46012;-78
2021/11/01 05:11:58;;;;;;;;;33.50;30.25;;;;;9.00;77.96;101093.41;146613;692;46014;-77
2021/11/01 05:15:06;;;;;;;;;;;;;;;;;;;;;
2021/11/01 05:20:52;;;;;;;;;43.00;33.00;;;;;8.96;78.40;101097.50;146613;630;45041;-82
2021/11/01 05:23:34;;;;;;;;;38.50;32.50;;;;;8.83;79.21;101060.44;146610;616;46020;-83
2021/11/01 05:26:16;;;;;;;;;30.25;28.75;;;;;9.03;78.74;101093.59;146614;624;45035;-81
2021/11/01 05:29:08;;;;;;;;;39.75;33.75;;;;;9.06;79.12;101086.03;146611;587;46020;-83
2021/11/01 05:31:58;;;;;;;;;36.50;31.75;;;;;9.13;79.20;101084.75;146615;620;45016;-75
2021/11/01 05:34:34;;;;;;;;;34.75;31.75;;;;;9.29;79.24;101089.19;146613;577;45020;-76
2021/11/01 05:37:11;;;;;;;;;30.75;27.75;;;;;9.83;78.65;101085.56;146613;573;46020;-76
2021/11/01 05:39:56;;;;;;;;;36.50;33.00;;;;;10.55;77.80;101079.44;146614;743;45020;-76
2021/11/01 05:42:42;;;;;;;;;37.00;29.50;;;;;11.43;76.48;101095.53;146607;635;46012;-76
2021/11/01 05:45:18;;;;;;;;;37.25;31.00;;;;;12.22;73.22;101084.13;146614;601;45021;-75
2021/11/01 05:48:02;;;;;;;;;37.50;29.50;;;;;12.92;70.82;101090.97;146608;597;45041;-74
2021/11/01 05:50:40;;;;;;;;;37.00;31.00;;;;;13.49;70.22;101094.53;146608;604;46010;-74
2021/11/01 05:53:19;;;;;;;;;38.75;33.50;;;;;14.09;69.11;101097.16;146608;588;46016;-74
2021/11/01 05:59:36;;;;;;;;;51.50;41.25;;;;;15.01;66.38;101103.56;146606;602;45913;-75
2021/11/01 06:02:23;;;;;;;;;46.00;37.75;;;;;15.33;65.08;101109.19;146609;564;46021;-73
2021/11/01 06:08:38;;;;;;;;;43.25;36.00;;;;;16.10;63.98;101118.09;146610;736;46010;-79
2021/11/01 06:14:25;;;;;;;;;43.25;35.25;;;;;16.80;61.25;101120.50;146608;668;45032;-79
2021/11/01 06:17:11;;;;;;;;;46.25;37.25;;;;;16.98;62.33;101108.84;146607;600;45038;-82
2021/11/01 06:19:56;;;;;;;;;52.25;41.50;;;;;17.13;60.40;101118.91;146615;629;45020;-79
2021/11/01 06:22:34;;;;;;;;;47.75;39.00;;;;;17.14;60.79;101112.84;146607;619;46013;-79
2021/11/01 06:25:12;;;;;;;;;49.25;39.25;;;;;17.21;61.81;101112.16;146610;599;46014;-79
2021/11/01 06:27:54;;;;;;;;;49.50;39.50;;;;;17.41;61.16;101113.62;146614;605;45016;-80
2021/11/01 06:30:38;;;;;;;;;48.00;37.00;;;;;17.62;61.05;101118.63;146611;590;45021;-79
2021/11/01 06:42:15;;;;;;;;;50.00;40.50;;;;;17.82;59.91;101124.50;146607;602;46020;-79
2021/11/01 06:45:20;;;;;;;;;53.50;41.25;;;;;17.66;59.81;101124.84;146610;577;46012;-80
2021/11/01 07:16:05;;;;;;;;;44.50;34.75;;;;;16.85;64.48;101113.72;146611;577;46012;-76
2021/11/01 07:18:56;;;;;;;;;41.00;35.50;;;;;16.96;64.92;101116.66;146609;646;46010;-76
2021/11/01 07:22:12;;;;;;;;;52.75;42.25;;;;;17.22;64.58;101113.94;146612;623;45016;-75
2021/11/01 08:29:01;;;;;;;;;40.50;34.25;;;;;18.56;61.41;100932.97;146605;588;46911;-77
2021/11/01 08:41:05;;;;;;;;;34.50;30.50;;;;;20.23;59.26;101104.69;146608;592;46016;-76
2021/11/01 09:09:55;;;;;;;;;34.00;29.75;;;;;20.18;59.00;101087.03;146612;595;45044;-77
2021/11/01 09:24:01;;;;;;;;;;;;;;;;;;;;;
2021/11/01 09:27:07;;;;;;;;;33.25;29.25;;;;;20.78;58.80;101067.87;146608;674;45021;-81
2021/11/01 09:30:21;;;;;;;;;32.50;25.00;;;;;20.84;54.96;101045.97;146606;725;46016;-81
2021/11/01 09:42:02;;;;;;;;;30.75;29.00;;;;;21.03;55.20;101033.91;146607;574;46018;-80
2021/11/01 09:44:39;;;;;;;;;29.50;25.25;;;;;21.17;55.77;101024.44;146612;582;45020;-79
2021/11/01 09:47:15;;;;;;;;;26.00;23.00;;;;;21.33;55.27;101029.03;146609;608;46012;-79
2021/11/01 09:50:03;;;;;;;;;25.50;23.50;;;;;21.55;55.08;101010.84;146611;599;45021;-79
2021/11/01 09:52:55;;;;;;;;;27.50;24.00;;;;;21.74;53.99;101011.94;146613;570;46012;-80
2021/11/01 09:55:49;;;;;;;;;31.25;25.00;;;;;21.91;54.89;101016.50;146609;624;45020;-79
2021/11/01 10:01:25;;;;;;;;;29.50;26.25;;;;;22.18;51.92;101009.75;146606;569;46010;-80
2021/11/01 10:04:02;;;;;;;;;20.00;18.75;;;;;22.22;52.29;101014.19;146607;613;47018;-80
2021/11/01 10:06:37;;;;;;;;;21.25;21.00;;;;;22.19;50.90;101010.63;146610;589;46014;-80
2021/11/01 10:09:15;;;;;;;;;19.75;19.50;;;;;22.05;49.99;101011.34;146608;610;45016;-80
2021/11/01 10:11:52;;;;;;;;;27.75;25.75;;;;;21.90;50.17;101013.88;146607;637;46021;-79
2021/11/01 10:14:50;;;;;;;;;28.25;25.50;;;;;21.80;52.45;101014.62;146607;669;46012;-79
2021/11/01 10:17:44;;;;;;;;;28.50;27.00;;;;;21.67;53.22;101011.88;146612;730;45020;-79
2021/11/01 10:24:02;;;;;;;;;26.00;24.75;;;;;21.84;54.71;101001.50;146607;472;47014;-81
2021/11/01 10:26:36;;;;;;;;;29.50;27.00;;;;;21.81;50.50;101005.88;146607;706;45909;-80
2021/11/01 10:29:13;;;;;;;;;25.75;23.25;;;;;21.73;50.37;100996.97;146607;609;46020;-80
2021/11/01 10:31:48;;;;;;;;;35.00;30.00;;;;;21.68;50.91;100996.91;146606;645;45016;-80
2021/11/01 10:34:31;;;;;;;;;32.00;28.00;;;;;21.74;54.00;100989.06;146608;624;46020;-80
2021/11/01 10:37:06;;;;;;;;;28.25;26.25;;;;;21.92;53.75;100983.94;146605;573;45911;-80
2021/11/01 10:39:40;;;;;;;;;25.50;22.75;;;;;22.06;47.68;100981.44;146608;569;46010;-80
2021/11/01 10:42:34;;;;;;;;;29.50;25.50;;;;;21.98;51.43;100976.97;146604;611;46017;-80
2021/11/01 10:45:49;;;;;;;;;28.25;26.25;;;;;21.91;50.45;100981.31;146608;616;46014;-80
2021/11/01 11:12:45;;;;;;;;;26.50;23.25;;;;;21.39;51.17;100928.91;146607;624;46017;-81
2021/11/01 11:15:19;;;;;;;;;27.00;24.00;;;;;21.16;52.02;100930.41;146606;611;46014;-80
2021/11/01 11:24:27;;;;;;;;;28.25;24.75;;;;;21.18;53.64;100908.44;146604;575;47913;-80
2021/11/01 11:39:27;;;;;;;;;24.25;23.25;;;;;21.42;52.21;100893.75;146607;574;46020;-80
2021/11/01 11:48:25;;;;;;;;;27.75;24.25;;;;;21.82;50.18;100888.84;146604;575;45914;-81
2021/11/01 11:51:10;;;;;;;;;21.75;20.50;;;;;21.86;51.97;100877.41;146606;585;46010;-81
2021/11/01 11:54:02;;;;;;;;;20.50;19.50;;;;;21.93;53.30;100871.31;146606;559;45016;-81
2021/11/01 11:56:40;;;;;;;;;21.50;21.50;;;;;22.01;50.20;100872.25;146608;590;45021;-78
2021/11/01 11:59:14;;;;;;;;;21.50;19.25;;;;;22.11;51.59;100868.78;146607;566;45020;-80
2021/11/01 12:01:57;;;;;;;;;24.50;22.00;;;;;22.25;51.66;100874.22;146607;656;46010;-80
2021/11/01 12:04:35;;;;;;;;;29.75;25.50;;;;;22.36;50.34;100867.22;146604;604;46017;-79
2021/11/01 12:07:13;;;;;;;;;24.75;21.75;;;;;22.40;48.51;100859.28;146609;667;46010;-81
2021/11/01 12:10:00;;;;;;;;;22.00;19.75;;;;;22.55;47.30;100860.28;146606;593;45912;-81
2021/11/01 12:12:56;;;;;;;;;27.50;24.00;;;;;22.58;47.53;100854.97;146609;601;45020;-82
2021/11/01 12:18:33;;;;;;;;;30.50;26.00;;;;;22.69;50.37;100851.50;146605;606;46014;-81
2021/11/01 12:21:07;;;;;;;;;24.50;20.50;;;;;22.80;48.43;100855.06;146606;673;46016;-85
2021/11/01 12:23:44;;;;;;;;;23.25;21.50;;;;;22.72;50.31;100847.13;146609;571;45020;-85
2021/11/01 12:26:23;;;;;;;;;23.25;20.50;;;;;22.62;49.25;100840.03;146604;669;45912;-81
2021/11/01 12:29:05;;;;;;;;;24.25;21.50;;;;;22.39;50.09;100850.50;146609;577;46010;-83
2021/11/01 12:31:39;;;;;;;;;27.50;24.00;;;;;22.00;49.49;100848.50;146606;610;46013;-80
2021/11/01 12:34:18;;;;;;;;;22.00;22.00;;;;;21.52;50.31;100847.25;146607;683;45021;-83
2021/11/01 12:39:54;;;;;;;;;23.25;21.25;;;;;20.64;52.31;100837.53;146608;583;46020;-81
2021/11/01 12:42:54;;;;;;;;;21.50;20.75;;;;;20.39;53.03;100839.81;146603;763;46928;-80
2021/11/01 12:46:05;;;;;;;;;23.75;22.75;;;;;20.23;52.31;100840.50;146606;616;46010;-82
2021/11/01 12:57:35;;;;;;;;;19.25;17.75;;;;;20.72;53.73;100838.53;146610;605;45020;-82
2021/11/01 13:00:11;;;;;;;;;24.50;21.00;;;;;20.84;52.65;100836.03;146605;580;46016;-82
2021/11/01 13:02:46;;;;;;;;;24.50;22.50;;;;;20.98;49.13;100846.69;146608;595;45021;-82
2021/11/01 13:05:27;;;;;;;;;20.25;20.25;;;;;21.14;50.59;100843.34;146604;623;46019;-81
2021/11/01 13:08:06;;;;;;;;;33.00;27.25;;;;;21.29;50.15;100839.97;146608;563;45020;-87
2021/11/01 13:10:48;;;;;;;;;23.50;22.25;;;;;21.21;47.79;100813.56;146606;577;45912;-86
2021/11/01 13:13:44;;;;;;;;;19.00;18.00;;;;;21.46;50.02;100840.16;146606;616;46020;-86
2021/11/01 13:19:22;;;;;;;;;29.00;26.25;;;;;21.54;47.71;100832.31;146607;594;46010;-85
2021/11/01 13:22:14;;;;;;;;;25.75;20.75;;;;;21.20;48.94;100835.50;146604;618;46016;-86
2021/11/01 13:25:00;;;;;;;;;23.75;22.50;;;;;20.84;51.36;100837.75;146609;690;45022;-86
2021/11/01 13:36:28;;;;;;;;;24.50;23.75;;;;;19.78;50.27;100833.69;146609;577;45020;-86
2021/11/01 13:39:05;;;;;;;;;22.50;22.00;;;;;19.87;50.62;100841.72;146604;608;47016;-86
2021/11/01 13:41:39;;;;;;;;;24.75;21.75;;;;;20.01;51.23;100831.41;146607;579;46010;-85
2021/11/01 13:44:19;;;;;;;;;22.75;21.50;;;;;20.12;51.30;100831.53;146605;593;45048;-85
2021/11/01 13:46:56;;;;;;;;;26.25;23.25;;;;;20.16;51.74;100834.25;146606;580;46014;-85
2021/11/01 13:49:35;;;;;;;;;23.00;21.00;;;;;20.06;49.26;100833.25;146604;585;46016;-86
2021/11/01 13:52:34;;;;;;;;;25.50;23.25;;;;;19.97;51.85;100834.84;146609;574;45020;-86
2021/11/01 13:55:20;;;;;;;;;24.75;22.25;;;;;19.93;50.19;100833.03;146606;648;46021;-84
2021/11/01 13:58:14;;;;;;;;;25.00;21.25;;;;;19.90;51.78;100835.62;146609;626;45020;-85
2021/11/01 14:12:35;;;;;;;;;27.50;25.00;;;;;19.44;48.80;100822.59;146605;604;46016;-90
2021/11/01 14:27:40;;;;;;;;;29.50;29.00;;;;;18.48;52.48;100826.03;146610;600;45020;-88
2021/11/01 14:36:45;;;;;;;;;30.00;27.25;;;;;18.04;51.90;100818.06;146608;607;45016;-90
2021/11/01 14:59:43;;;;;;;;;57.75;42.75;;;;;17.12;58.84;100824.56;146606;624;45016;-91
2021/11/01 15:14:25;;;;;;;;;59.25;45.00;;;;;16.28;60.79;100820.44;146607;563;45915;-88
2021/11/01 15:17:27;;;;;;;;;64.50;50.00;;;;;16.16;60.83;100817.47;146607;631;45017;-90
2021/11/01 15:32:45;;;;;;;;;45.00;36.25;;;;;15.51;62.79;100813.63;146609;600;45020;-83
2021/11/01 16:16:38;;;;;;;;;29.25;24.00;;;;;14.77;61.69;100826.81;146603;688;46012;-81
2021/11/01 16:19:09;;;;;;;;;26.25;22.00;;;;;14.52;62.76;100796.34;146610;615;45028;-81
2021/11/01 16:21:43;;;;;;;;;26.75;25.00;;;;;14.61;62.50;100827.97;146601;610;46013;-82
2021/11/01 16:24:17;;;;;;;;;30.00;28.00;;;;;14.56;62.23;100829.53;146609;563;45020;-82
2021/11/01 16:30:25;;;;;;;;;30.00;28.00;;;;;14.42;62.73;100834.19;146604;668;46021;-84
2021/11/01 16:33:04;;;;;;;;;34.25;31.50;;;;;14.33;62.69;100836.47;146605;572;46016;-84
2021/11/01 16:35:43;;;;;;;;;43.50;34.25;;;;;14.29;63.07;100835.44;146607;575;45020;-84
2021/11/01 16:38:24;;;;;;;;;33.50;28.50;;;;;14.23;63.29;100842.16;146606;567;45914;-83
2021/11/01 16:40:59;;;;;;;;;30.75;26.25;;;;;14.16;63.52;100845.34;146609;566;45020;-83
2021/11/01 16:43:33;;;;;;;;;32.00;27.50;;;;;14.11;64.05;100845.16;146599;579;46017;-83
2021/11/01 16:46:07;;;;;;;;;37.50;32.75;;;;;14.05;64.25;100840.63;146607;611;46020;-82
2021/11/01 16:48:42;;;;;;;;;32.25;26.25;;;;;14.01;64.08;100849.12;146607;646;45016;-83
2021/11/01 16:51:16;;;;;;;;;36.25;30.75;;;;;13.96;64.38;100850.69;146608;672;46022;-82
2021/11/01 16:53:50;;;;;;;;;37.75;31.75;;;;;13.92;64.48;100851.38;146604;565;45911;-83
2021/11/01 17:02:59;;;;;;;;;34.50;29.00;;;;;13.84;64.32;100856.31;146606;617;46010;-82
2021/11/01 17:05:58;;;;;;;;;34.75;29.25;;;;;13.82;64.04;100855.34;146607;603;45912;-81
2021/11/01 17:26:29;;;;;;;;;35.00;30.00;;;;;13.65;65.42;100866.81;146607;606;46010;-81
2021/11/01 17:35:53;;;;;;;;;57.25;43.50;;;;;12.38;65.02;100677.50;146605;570;46016;-82
2021/11/01 17:38:53;;;;;;;;;34.25;31.25;;;;;13.47;65.17;100871.25;146608;610;45020;-81
2021/11/01 18:37:20;;;;;;;;;48.50;38.75;;;;;14.05;66.10;100887.56;146607;569;46014;-84
2021/11/01 18:43:23;;;;;;;;;40.25;34.75;;;;;13.98;65.89;100885.50;146607;569;46021;-86
2021/11/01 18:46:13;;;;;;;;;44.50;34.50;;;;;13.90;66.12;100880.84;146606;563;45016;-84
2021/11/01 18:51:53;;;;;;;;;34.25;28.75;;;;;13.74;66.08;100875.00;146605;573;46018;-87
2021/11/01 18:54:34;;;;;;;;;45.50;37.25;;;;;13.62;66.84;100875.38;146608;626;46010;-86
2021/11/01 18:57:11;;;;;;;;;46.75;35.75;;;;;13.55;66.60;100875.06;146603;624;45912;-88
2021/11/01 18:59:45;;;;;;;;;48.25;37.25;;;;;13.53;66.86;100866.31;146607;575;46010;-85
2021/11/01 19:02:49;;;;;;;;;55.50;41.00;;;;;13.54;66.56;100860.25;146605;636;46012;-87
2021/11/01 19:05:38;;;;;;;;;56.25;46.00;;;;;13.52;67.55;100864.50;146605;697;46021;-85
2021/11/01 19:08:27;;;;;;;;;77.00;64.75;;;;;13.55;67.65;100865.56;146606;591;45016;-87
2021/11/01 20:12:20;;;;;;;;;37.50;29.00;;;;;13.02;68.99;100853.72;146604;573;45914;-86
2021/11/01 21:25:43;;;;;;;;;40.50;35.00;;;;;12.91;70.71;100834.13;146604;590;46918;-79
2021/11/01 21:28:17;;;;;;;;;41.75;33.00;;;;;13.00;70.98;100831.06;146605;618;46021;-80
2021/11/01 21:30:53;;;;;;;;;45.00;36.00;;;;;13.09;71.74;100823.63;146606;611;46020;-79
2021/11/01 21:33:32;;;;;;;;;42.25;34.50;;;;;13.19;70.72;100825.78;146604;609;46013;-78
2021/11/01 21:36:10;;;;;;;;;46.75;37.75;;;;;13.22;70.41;100819.84;146608;583;45020;-85
2021/11/01 21:38:45;;;;;;;;;48.75;37.25;;;;;13.25;69.75;100815.66;146606;701;45909;-81
2021/11/01 21:41:19;;;;;;;;;53.75;42.00;;;;;13.24;70.02;100808.66;146608;584;45023;-79
2021/11/01 21:43:54;;;;;;;;;49.50;40.50;;;;;13.26;69.87;100800.94;146608;610;45909;-80
2021/11/01 21:46:28;;;;;;;;;53.00;40.75;;;;;13.25;70.63;100818.28;146609;571;46010;-81
2021/11/01 21:49:02;;;;;;;;;51.25;40.25;;;;;13.26;70.46;100800.94;146605;663;45910;-85
2021/11/01 21:51:38;;;;;;;;;56.00;42.25;;;;;13.26;70.61;100795.72;146607;674;46010;-82
2021/11/01 21:54:28;;;;;;;;;58.25;44.25;;;;;13.31;70.57;100800.31;146608;592;45016;-77
2021/11/01 21:57:20;;;;;;;;;65.75;50.75;;;;;13.35;70.48;100810.00;146608;629;46010;-78
2021/11/01 22:20:29;;;;;;;;;73.25;60.75;;;;;13.33;70.78;100783.03;146607;589;45020;-81
2021/11/01 22:23:10;;;;;;;;;67.25;52.25;;;;;13.33;70.07;100777.81;146606;683;46016;-75
2021/11/01 22:25:52;;;;;;;;;72.50;55.50;;;;;13.36;70.09;100777.94;146606;569;46915;-78
2021/11/01 22:34:26;;;;;;;;;80.25;70.00;;;;;13.38;71.50;100767.59;146608;602;45038;-77
2021/11/01 22:39:58;;;;;;;;;76.25;60.25;;;;;13.39;73.54;100765.06;146604;564;46017;-75
2021/11/01 22:57:03;;;;;;;;;33.50;29.00;;;;;14.23;71.83;100751.75;146605;673;46911;-71
2021/11/01 22:59:37;;;;;;;;;44.50;35.00;;;;;14.36;70.62;100746.97;146608;604;45020;-73
2021/11/01 23:02:11;;;;;;;;;34.75;29.50;;;;;14.44;69.49;100745.56;146606;644;46016;-80
2021/11/01 23:33:38;;;;;;;;;24.75;23.00;;;;;15.30;65.83;100688.44;146608;564;45020;-74
2021/11/01 23:36:12;;;;;;;;;24.25;23.25;;;;;15.35;66.75;100689.44;146605;611;46016;-77
2021/11/01 23:38:46;;;;;;;;;28.75;28.50;;;;;15.35;65.99;100689.44;146608;628;45021;-74
2021/11/01 23:41:20;;;;;;;;;31.00;27.75;;;;;15.37;66.17;100691.28;146604;653;46012;-70
2021/11/01 23:43:55;;;;;;;;;26.75;23.75;;;;;15.38;66.19;100676.50;146607;563;45020;-73
2021/11/01 23:46:29;;;;;;;;;25.25;23.00;;;;;15.40;65.88;100683.53;146604;578;46017;-71
2021/11/01 23:49:03;;;;;;;;;24.25;19.75;;;;;14.77;65.26;100577.13;146609;628;46010;-71
2021/11/01 23:51:37;;;;;;;;;31.25;26.75;;;;;15.41;65.41;100687.03;146602;611;46017;-69
2021/11/01 23:54:35;;;;;;;;;32.00;28.50;;;;;15.42;65.92;100680.97;146609;566;45021;-74